Homer, Ohio
Current Conditions -  °F | °C
As of 5:16 PM on Thursday 18 Dec 2014 (Local Time) from K4I3 Reporting Station
Overcast Overcast  
Wind Chill: 27°   Ceiling: 1500
Heat Index: 27°   Visibility: 10mi
Dew Point: 23°   Wind: 3mph
Humidity: 86%   Direction: 250°WSW
Pressure: 30.18"   Gusts: NA
Location:  40.25°N, 82.51°W
Report Text: K4I3 182216Z AUTO 25003KT 10SM OVC015 M03/M05 A3018 RMK AO2
Loading
Personal Weather Stations






























Interactive Weather Map New forecast layout! Learn more

10-Day Weather Forecast

Advertisements
Track Severe Weather on mobile